Time;durP1;ratioP1;P1;durP2;ratioP2;P2;SDS_P1;SDS_P2;PMS_P1;PMS_P2;Temp;Humidity;BMP_temperature;BMP_pressure;BME280_temperature;BME280_humidity;BME280_pressure;Samples;Min_cycle;Max_cycle;Signal;HPM_P1;HPM_P2
2023/05/03 00:00:32;;;;;;;;;;;;;;;11.88;80.51;100949.88;5071597;28;19920;-56
2023/05/03 00:02:58;;;;;;;;;;;;;;;11.86;79.98;100941.06;5074282;28;19947;-57
2023/05/03 00:05:24;;;;;;;;;;;;;;;11.83;80.00;100947.31;5090821;28;19920;-57
2023/05/03 00:07:49;;;;;;;;;;;;;;;11.79;80.00;100942.94;5093909;28;20342;-57
2023/05/03 00:10:15;;;;;;;;;;;;;;;11.79;79.90;100944.75;5091804;28;19916;-56
2023/05/03 00:12:41;;;;;;;;;;;;;;;11.85;80.58;100944.59;5091962;28;19919;-56
2023/05/03 00:15:07;;;;;;;;;;;;;;;11.87;80.47;100943.69;5090384;28;19920;-56
2023/05/03 00:17:32;;;;;;;;;;;;;;;11.86;79.53;100941.91;5091564;28;20401;-56
2023/05/03 00:19:58;;;;;;;;;;;;;;;11.85;80.35;100945.50;5090710;28;19920;-56
2023/05/03 00:22:23;;;;;;;;;;;;;;;11.81;79.70;100945.63;5091479;28;20002;-56
2023/05/03 00:24:50;;;;;;;;;;;;;;;11.80;80.74;100941.16;5091582;28;19912;-57
2023/05/03 00:27:16;;;;;;;;;;;;;;;11.84;80.42;100942.88;5090351;28;20605;-56
2023/05/03 00:29:41;;;;;;;;;;;;;;;11.78;80.37;100937.66;5090498;28;19926;-56
2023/05/03 00:32:07;;;;;;;;;;;;;;;11.70;82.04;100934.28;5091008;28;20345;-56
2023/05/03 00:34:32;;;;;;;;;;;;;;;11.73;81.48;100944.88;5090447;28;20359;-56
2023/05/03 00:36:57;;;;;;;;;;;;;;;11.66;82.49;100938.81;5091126;28;20002;-56
2023/05/03 00:39:23;;;;;;;;;;;;;;;11.57;82.43;100933.66;5090601;28;20303;-56
2023/05/03 00:41:48;;;;;;;;;;;;;;;11.65;82.53;100946.84;5090622;28;19912;-56
2023/05/03 00:44:13;;;;;;;;;;;;;;;11.61;81.78;100939.81;5089188;28;19913;-56
2023/05/03 00:46:39;;;;;;;;;;;;;;;11.49;82.43;100934.75;5089280;28;20249;-56
2023/05/03 00:49:05;;;;;;;;;;;;;;;11.51;82.60;100932.94;5090455;28;19926;-56
2023/05/03 00:51:30;;;;;;;;;;;;;;;11.51;82.79;100932.94;5089187;28;19920;-56
2023/05/03 00:53:56;;;;;;;;;;;;;;;11.50;82.27;100931.16;5078420;28;20482;-56
2023/05/03 00:56:22;;;;;;;;;;;;;;;11.46;82.65;100918.81;5071560;28;19923;-56
2023/05/03 00:58:49;;;;;;;;;;;;;;;11.45;83.64;100925.94;5091215;28;20007;-56
2023/05/03 01:01:15;;;;;;;;;;;;;;;11.44;83.58;100929.53;5090214;28;19965;-56
2023/05/03 01:03:41;;;;;;;;;;;;;;;11.45;84.17;100920.59;5089658;28;20007;-56
2023/05/03 01:06:14;;;;;;;;;;;;;;;11.36;84.16;100915.50;5089612;28;20008;-56
2023/05/03 01:08:46;;;;;;;;;;;;;;;11.33;83.71;100912.00;5090699;28;20264;-57
2023/05/03 01:11:15;;;;;;;;;;;;;;;11.29;84.49;100915.63;5089404;28;19920;-57
2023/05/03 01:13:41;;;;;;;;;;;;;;;11.21;85.12;100909.59;5090589;28;19964;-56
2023/05/03 01:16:09;;;;;;;;;;;;;;;11.23;86.00;100907.78;5090145;28;19935;-56
2023/05/03 01:18:39;;;;;;;;;;;;;;;11.14;85.83;100906.19;5089895;28;19923;-57
2023/05/03 01:21:04;;;;;;;;;;;;;;;11.12;86.89;100901.81;5090284;28;19916;-57
2023/05/03 01:23:41;;;;;;;;;;;;;;;11.11;87.58;100900.03;5089543;28;20390;-57
2023/05/03 01:26:22;;;;;;;;;;;;;;;11.03;86.98;100897.56;5090311;28;19966;-56
2023/05/03 01:28:47;;;;;;;;;;;;;;;11.01;87.36;100904.69;5089420;28;19931;-56
2023/05/03 01:31:16;;;;;;;;;;;;;;;10.93;87.82;100900.41;5089872;28;19920;-56
2023/05/03 01:33:49;;;;;;;;;;;;;;;10.89;88.38;100893.41;5089455;28;20013;-56
2023/05/03 01:36:21;;;;;;;;;;;;;;;10.90;88.51;100890.72;5069852;28;20011;-56
2023/05/03 01:38:47;;;;;;;;;;;;;;;10.95;88.30;100891.50;5089694;28;20003;-56
2023/05/03 01:41:15;;;;;;;;;;;;;;;10.94;87.45;100902.19;5089433;28;20018;-56
2023/05/03 01:43:41;;;;;;;;;;;;;;;10.93;87.59;100889.78;5090047;28;20296;-57
2023/05/03 01:46:06;;;;;;;;;;;;;;;10.94;88.32;100891.53;5089547;28;19931;-57
2023/05/03 01:48:31;;;;;;;;;;;;;;;10.91;87.55;100879.16;5089928;28;19920;-56
2023/05/03 01:50:57;;;;;;;;;;;;;;;10.85;88.35;100881.06;5090047;28;19919;-56
2023/05/03 01:53:22;;;;;;;;;;;;;;;10.84;88.02;100890.81;5089380;28;20375;-57
2023/05/03 01:55:47;;;;;;;;;;;;;;;10.80;88.93;100888.25;5091881;28;20026;-56
2023/05/03 01:58:13;;;;;;;;;;;;;;;10.83;88.00;100882.88;5091410;28;19962;-56
2023/05/03 02:00:38;;;;;;;;;;;;;;;10.65;88.62;100884.13;5089017;28;19920;-57
2023/05/03 02:03:03;;;;;;;;;;;;;;;10.67;89.59;100877.00;5089004;28;19993;-56
2023/05/03 02:05:28;;;;;;;;;;;;;;;10.63;88.49;100881.50;5088242;28;20232;-57
2023/05/03 02:07:54;;;;;;;;;;;;;;;10.60;89.39;100878.91;5088739;28;19924;-56
2023/05/03 02:10:19;;;;;;;;;;;;;;;10.49;89.91;100880.84;5088252;28;19994;-57
2023/05/03 02:12:44;;;;;;;;;;;;;;;10.45;89.90;100886.28;5088834;28;19928;-57
2023/05/03 02:15:10;;;;;;;;;;;;;;;10.50;89.73;100879.97;5089463;28;19916;-57
2023/05/03 02:17:36;;;;;;;;;;;;;;;10.52;90.34;100878.16;5089874;28;19916;-57
2023/05/03 02:20:02;;;;;;;;;;;;;;;10.47;90.61;100877.38;5088370;28;19920;-56
2023/05/03 02:22:28;;;;;;;;;;;;;;;10.43;90.38;100883.63;5089587;28;19920;-56
2023/05/03 02:24:53;;;;;;;;;;;;;;;10.39;90.84;100878.41;5089762;28;19920;-57
2023/05/03 02:27:18;;;;;;;;;;;;;;;10.44;90.39;100885.38;5070422;28;19924;-57
2023/05/03 02:29:43;;;;;;;;;;;;;;;10.39;89.96;100875.75;5089636;28;19924;-57
2023/05/03 02:32:09;;;;;;;;;;;;;;;10.33;90.91;100875.84;5089028;28;19977;-57
2023/05/03 02:34:34;;;;;;;;;;;;;;;10.35;90.63;100871.38;5089910;28;20319;-57
2023/05/03 02:36:59;;;;;;;;;;;;;;;10.36;90.86;100875.81;5089939;28;19916;-56
2023/05/03 02:39:25;;;;;;;;;;;;;;;10.36;90.77;100882.00;5089676;28;19912;-56
2023/05/03 02:41:50;;;;;;;;;;;;;;;10.31;91.31;100878.53;5088677;28;19919;-57
2023/05/03 02:44:15;;;;;;;;;;;;;;;10.26;90.74;100888.38;5089661;28;19926;-57
2023/05/03 02:46:40;;;;;;;;;;;;;;;10.26;92.10;100888.38;5089452;28;19923;-57
2023/05/03 02:49:08;;;;;;;;;;;;;;;10.24;91.61;100887.53;5088396;28;19926;-57
2023/05/03 02:51:34;;;;;;;;;;;;;;;10.22;91.29;100893.78;5089282;28;20284;-56
2023/05/03 02:53:59;;;;;;;;;;;;;;;10.21;92.31;100889.38;5089413;28;19920;-56
2023/05/03 02:56:27;;;;;;;;;;;;;;;10.14;91.79;100887.72;5088467;28;20003;-57
2023/05/03 02:58:53;;;;;;;;;;;;;;;10.24;91.55;100890.19;5088991;28;19919;-56
2023/05/03 03:01:18;;;;;;;;;;;;;;;10.17;91.35;100890.31;5088338;28;20299;-57
2023/05/03 03:03:44;;;;;;;;;;;;;;;10.27;91.28;100890.16;5089219;28;19924;-57
2023/05/03 03:06:09;;;;;;;;;;;;;;;10.24;91.35;100895.53;5088678;28;19916;-57
2023/05/03 03:08:35;;;;;;;;;;;;;;;10.26;90.92;100893.69;5096489;28;19927;-57
2023/05/03 03:11:00;;;;;;;;;;;;;;;10.20;91.92;100893.81;5072464;28;19967;-57
2023/05/03 03:13:25;;;;;;;;;;;;;;;10.18;90.94;100892.94;5087280;28;20613;-57
2023/05/03 03:15:51;;;;;;;;;;;;;;;10.15;91.13;100884.13;5084341;28;19928;-57
2023/05/03 03:18:16;;;;;;;;;;;;;;;10.03;90.87;100879.88;5092639;28;19912;-57
2023/05/03 03:20:42;;;;;;;;;;;;;;;9.96;92.10;100880.91;5092788;28;19916;-57
2023/05/03 03:23:07;;;;;;;;;;;;;;;9.92;91.93;100881.84;5092357;28;20577;-57
2023/05/03 03:25:32;;;;;;;;;;;;;;;9.85;92.02;100881.97;5090878;28;19916;-57
2023/05/03 03:27:58;;;;;;;;;;;;;;;9.80;91.16;100890.00;5091083;28;19920;-57
2023/05/03 03:30:23;;;;;;;;;;;;;;;9.78;91.31;100881.19;5090841;28;20075;-57
2023/05/03 03:32:48;;;;;;;;;;;;;;;9.79;91.29;100884.72;5091803;28;19912;-57
2023/05/03 03:35:14;;;;;;;;;;;;;;;9.66;91.84;100876.06;5090853;28;19920;-57
2023/05/03 03:37:39;;;;;;;;;;;;;;;9.69;91.88;100886.63;5089952;28;20372;-57
2023/05/03 03:40:06;;;;;;;;;;;;;;;9.67;91.80;100874.28;5094138;28;19919;-57
2023/05/03 03:42:31;;;;;;;;;;;;;;;9.55;92.07;100878.00;5091205;28;20051;-57
2023/05/03 03:44:56;;;;;;;;;;;;;;;9.55;91.88;100879.78;5092013;28;20014;-57
2023/05/03 03:47:22;;;;;;;;;;;;;;;9.58;91.93;100879.72;5092254;28;20307;-57
2023/05/03 03:49:47;;;;;;;;;;;;;;;9.56;91.83;100885.06;5090935;28;19920;-57
2023/05/03 03:52:12;;;;;;;;;;;;;;;9.55;91.42;100882.44;5071838;28;20376;-57
2023/05/03 03:54:37;;;;;;;;;;;;;;;9.52;91.77;100891.34;5086331;28;19924;-57
2023/05/03 03:57:03;;;;;;;;;;;;;;;9.48;92.82;100892.28;5094507;28;19973;-57
2023/05/03 03:59:29;;;;;;;;;;;;;;;9.51;92.93;100886.03;5092200;28;19916;-57
2023/05/03 04:01:54;;;;;;;;;;;;;;;9.49;92.74;100891.34;5091469;28;19927;-57
2023/05/03 04:04:20;;;;;;;;;;;;;;;9.41;93.58;100893.25;5091510;28;19927;-57
2023/05/03 04:06:45;;;;;;;;;;;;;;;9.41;94.41;100884.44;5090598;28;19923;-56
2023/05/03 04:09:10;;;;;;;;;;;;;;;9.45;94.40;100894.09;5089884;28;20669;-57
2023/05/03 04:11:36;;;;;;;;;;;;;;;9.40;94.56;100891.50;5089813;28;19923;-56
2023/05/03 04:14:02;;;;;;;;;;;;;;;9.29;94.33;100885.47;5088010;28;19916;-57
2023/05/03 04:16:27;;;;;;;;;;;;;;;9.30;94.40;100889.88;5089633;28;20002;-57
2023/05/03 04:18:52;;;;;;;;;;;;;;;9.29;94.84;100888.13;5091672;28;20024;-57
2023/05/03 04:21:18;;;;;;;;;;;;;;;9.33;95.01;100888.06;5090822;28;19923;-57
2023/05/03 04:23:44;;;;;;;;;;;;;;;9.35;94.59;100885.38;5091436;28;19912;-57
2023/05/03 04:26:10;;;;;;;;;;;;;;;9.39;94.25;100888.88;5090722;28;20447;-57
2023/05/03 04:28:37;;;;;;;;;;;;;;;9.36;94.33;100887.13;5090644;28;19927;-57
2023/05/03 04:31:02;;;;;;;;;;;;;;;9.32;94.67;100890.72;5091620;28;20681;-57
2023/05/03 04:33:28;;;;;;;;;;;;;;;9.32;95.00;100882.78;5089895;28;20014;-57
2023/05/03 04:35:54;;;;;;;;;;;;;;;9.37;95.45;100888.91;5091284;28;19916;-57
2023/05/03 04:38:19;;;;;;;;;;;;;;;9.33;95.06;100893.38;5090337;28;19924;-57
2023/05/03 04:40:45;;;;;;;;;;;;;;;9.39;95.04;100892.38;5090999;28;20371;-57
2023/05/03 04:43:11;;;;;;;;;;;;;;;9.40;95.10;100883.53;5091015;28;20039;-56
2023/05/03 04:45:37;;;;;;;;;;;;;;;9.46;94.97;100888.75;5090286;28;19920;-57
2023/05/03 04:48:04;;;;;;;;;;;;;;;9.52;95.15;100888.69;5090944;28;19924;-57
2023/05/03 04:50:29;;;;;;;;;;;;;;;9.57;94.68;100892.13;5089315;28;20571;-57
2023/05/03 04:52:54;;;;;;;;;;;;;;;9.61;94.10;100885.88;5089124;28;19958;-57
2023/05/03 04:55:20;;;;;;;;;;;;;;;9.62;94.28;100895.59;5088545;28;19974;-57
2023/05/03 04:57:45;;;;;;;;;;;;;;;9.61;93.92;100899.16;5088534;28;20401;-57
2023/05/03 05:00:11;;;;;;;;;;;;;;;9.65;94.28;100895.56;5086273;28;19963;-57
2023/05/03 05:02:36;;;;;;;;;;;;;;;9.74;93.96;100892.75;5088459;28;19923;-57
2023/05/03 05:05:02;;;;;;;;;;;;;;;9.81;93.92;100898.84;5090312;28;19985;-57
2023/05/03 05:07:27;;;;;;;;;;;;;;;9.85;93.35;100901.44;5089002;28;19920;-57
2023/05/03 05:09:53;;;;;;;;;;;;;;;9.92;92.49;100894.25;5089409;28;19962;-57
2023/05/03 05:12:18;;;;;;;;;;;;;;;9.94;92.59;100893.31;5089517;28;19929;-57
2023/05/03 05:14:43;;;;;;;;;;;;;;;9.99;92.35;100901.22;5089592;28;19916;-57
2023/05/03 05:17:09;;;;;;;;;;;;;;;9.94;92.59;100897.75;5090521;28;20650;-57
2023/05/03 05:19:34;;;;;;;;;;;;;;;10.08;92.78;100901.97;5090229;28;19978;-57
2023/05/03 05:22:00;;;;;;;;;;;;;;;10.13;91.45;100900.13;5090404;28;19916;-57
2023/05/03 05:24:25;;;;;;;;;;;;;;;10.35;92.05;100900.63;5088982;28;19962;-57
2023/05/03 05:26:50;;;;;;;;;;;;;;;10.64;91.14;100899.19;5090493;28;20007;-57
2023/05/03 05:29:16;;;;;;;;;;;;;;;10.74;88.65;100899.03;5088712;28;20276;-58
2023/05/03 05:31:41;;;;;;;;;;;;;;;10.84;87.93;100903.28;5089994;28;19920;-57
2023/05/03 05:34:06;;;;;;;;;;;;;;;10.91;88.48;100899.56;5089326;28;19970;-58
2023/05/03 05:36:32;;;;;;;;;;;;;;;11.33;86.81;100906.69;5089681;28;19931;-58
2023/05/03 05:38:57;;;;;;;;;;;;;;;11.48;83.93;100904.53;5088834;28;20010;-57
2023/05/03 05:41:22;;;;;;;;;;;;;;;11.29;83.73;100910.31;5089048;28;20399;-57
2023/05/03 05:43:48;;;;;;;;;;;;;;;11.33;84.43;100912.00;5088139;28;19920;-56
2023/05/03 05:46:13;;;;;;;;;;;;;;;11.38;85.27;100904.81;5089119;28;19927;-56
2023/05/03 05:48:38;;;;;;;;;;;;;;;11.31;85.49;100906.72;5088082;28;19931;-57
2023/05/03 05:51:04;;;;;;;;;;;;;;;11.47;86.13;100893.94;5091514;28;19942;-57
2023/05/03 05:53:29;;;;;;;;;;;;;;;11.53;84.74;100900.00;5071247;28;20351;-57
2023/05/03 05:55:55;;;;;;;;;;;;;;;11.57;84.54;100899.03;5088977;28;19998;-57
2023/05/03 05:58:20;;;;;;;;;;;;;;;11.76;84.46;100891.53;5092741;28;19924;-57
2023/05/03 06:00:47;;;;;;;;;;;;;;;11.79;83.59;100896.78;5089109;28;19993;-57
2023/05/03 06:03:13;;;;;;;;;;;;;;;11.83;83.38;100895.78;5089715;28;19928;-57
2023/05/03 06:05:38;;;;;;;;;;;;;;;11.90;82.84;100905.41;5089328;28;20275;-57
2023/05/03 06:08:04;;;;;;;;;;;;;;;12.03;82.42;100905.97;5089023;28;19923;-57
2023/05/03 06:10:29;;;;;;;;;;;;;;;12.33;82.26;100908.75;5089544;28;19916;-57
2023/05/03 06:12:54;;;;;;;;;;;;;;;12.51;81.12;100905.63;5088405;28;20383;-57
2023/05/03 06:15:20;;;;;;;;;;;;;;;12.50;79.86;100916.34;5086835;28;19962;-56
2023/05/03 06:17:45;;;;;;;;;;;;;;;12.45;79.74;100904.91;5069567;28;19919;-58
2023/05/03 06:20:11;;;;;;;;;;;;;;;12.41;79.27;100913.88;5086335;28;20326;-58
2023/05/03 06:22:36;;;;;;;;;;;;;;;12.47;79.25;100909.28;5089725;28;19916;-57
2023/05/03 06:25:02;;;;;;;;;;;;;;;12.59;78.71;100914.28;5088726;28;19927;-57
2023/05/03 06:27:27;;;;;;;;;;;;;;;12.61;79.25;100912.47;5089727;28;19920;-58
2023/05/03 06:29:52;;;;;;;;;;;;;;;12.70;78.11;100908.69;5089738;28;20351;-58
2023/05/03 06:32:18;;;;;;;;;;;;;;;12.66;78.81;100909.66;5088409;28;19913;-56
2023/05/03 06:34:43;;;;;;;;;;;;;;;12.79;79.93;100905.75;5088250;28;20398;-57
2023/05/03 06:37:08;;;;;;;;;;;;;;;12.99;78.69;100909.63;5089532;28;19923;-57
2023/05/03 06:39:34;;;;;;;;;;;;;;;13.18;76.73;100901.97;5088403;28;20048;-57
2023/05/03 06:41:59;;;;;;;;;;;;;;;13.48;77.45;100893.06;5089441;28;20023;-57
2023/05/03 06:44:25;;;;;;;;;;;;;;;13.60;74.98;100900.72;5090349;28;19927;-57
2023/05/03 06:46:50;;;;;;;;;;;;;;;13.84;74.37;100891.91;5077753;28;20677;-57
2023/05/03 06:49:15;;;;;;;;;;;;;;;14.05;73.52;100890.34;5087116;28;20410;-57
2023/05/03 06:51:41;;;;;;;;;;;;;;;14.21;74.14;100891.59;5093396;28;19969;-57
2023/05/03 06:54:08;;;;;;;;;;;;;;;14.46;74.37;100897.91;5091844;28;19962;-57
2023/05/03 06:56:33;;;;;;;;;;;;;;;14.52;72.97;100893.22;5093076;28;19959;-57
2023/05/03 06:59:00;;;;;;;;;;;;;;;14.74;71.24;100898.69;5093114;28;20406;-57
2023/05/03 07:01:25;;;;;;;;;;;;;;;15.08;71.55;100887.59;5092758;28;20651;-57
2023/05/03 07:03:50;;;;;;;;;;;;;;;15.22;68.04;100896.88;5092127;28;19931;-57
2023/05/03 07:06:17;;;;;;;;;;;;;;;15.42;68.37;100896.19;5093048;28;20027;-57
2023/05/03 07:08:42;;;;;;;;;;;;;;;15.93;66.10;100890.56;5094313;28;19969;-57
2023/05/03 07:11:08;;;;;;;;;;;;;;;16.21;63.70;100896.56;5092785;28;19916;-56
2023/05/03 07:13:34;;;;;;;;;;;;;;;16.61;64.33;100899.31;5092341;28;19935;-57
2023/05/03 07:15:59;;;;;;;;;;;;;;;16.99;63.96;100893.13;5092876;28;19916;-57
2023/05/03 07:18:24;;;;;;;;;;;;;;;17.41;62.07;100896.56;5091092;28;19920;-57
2023/05/03 07:20:50;;;;;;;;;;;;;;;17.62;59.41;100890.22;5092407;28;19912;-57
2023/05/03 07:23:15;;;;;;;;;;;;;;;17.82;60.39;100900.03;5090686;28;19916;-57
2023/05/03 07:25:41;;;;;;;;;;;;;;;17.98;57.10;100890.25;5091395;28;20296;-57
2023/05/03 07:28:06;;;;;;;;;;;;;;;18.32;56.96;100893.00;5091696;28;20014;-57
2023/05/03 07:30:31;;;;;;;;;;;;;;;18.75;56.80;100895.28;5090955;28;19931;-58
2023/05/03 07:32:56;;;;;;;;;;;;;;;18.96;56.83;100893.31;5091698;28;19926;-58
2023/05/03 07:35:22;;;;;;;;;;;;;;;19.37;56.47;100897.38;5072339;28;20492;-58
2023/05/03 07:37:47;;;;;;;;;;;;;;;19.30;53.66;100886.06;5091021;28;19931;-58
2023/05/03 07:40:12;;;;;;;;;;;;;;;19.58;51.75;100885.41;5091484;28;19920;-58
2023/05/03 07:42:38;;;;;;;;;;;;;;;19.66;53.20;100885.84;5091237;28;19916;-58
2023/05/03 07:45:03;;;;;;;;;;;;;;;20.04;53.07;100887.25;5091594;28;20061;-58
2023/05/03 07:47:28;;;;;;;;;;;;;;;20.06;52.32;100887.16;5090549;28;19924;-58
2023/05/03 07:49:54;;;;;;;;;;;;;;;20.25;51.19;100888.72;5094262;28;19916;-58
2023/05/03 07:52:19;;;;;;;;;;;;;;;20.42;50.83;100888.63;5091238;28;19919;-58
2023/05/03 07:54:44;;;;;;;;;;;;;;;20.23;51.92;100885.22;5091829;28;19916;-58
2023/05/03 07:57:10;;;;;;;;;;;;;;;20.33;50.77;100885.59;5094686;28;19920;-58
2023/05/03 07:59:37;;;;;;;;;;;;;;;20.55;49.84;100878.81;5090977;28;19924;-57
2023/05/03 08:02:02;;;;;;;;;;;;;;;21.05;50.36;100873.06;5090383;28;19916;-57
2023/05/03 08:04:28;;;;;;;;;;;;;;;21.31;50.95;100875.00;5075884;28;19927;-57
2023/05/03 08:06:53;;;;;;;;;;;;;;;21.53;48.60;100871.81;5090962;28;19923;-57
2023/05/03 08:09:18;;;;;;;;;;;;;;;21.41;48.11;100883.41;5083903;28;19927;-56
2023/05/03 08:11:43;;;;;;;;;;;;;;;21.27;49.48;100884.28;5090362;28;19935;-57
2023/05/03 08:14:09;;;;;;;;;;;;;;;21.44;48.01;100885.91;5090578;28;20326;-56
2023/05/03 08:16:34;;;;;;;;;;;;;;;21.75;47.06;100888.41;5089747;28;20014;-56
2023/05/03 08:18:59;;;;;;;;;;;;;;;21.64;48.15;100890.94;5090724;28;19969;-56
2023/05/03 08:21:25;;;;;;;;;;;;;;;21.54;48.72;100889.78;5090327;28;19920;-56
2023/05/03 08:23:50;;;;;;;;;;;;;;;21.61;47.06;100888.44;5091310;28;20653;-56
2023/05/03 08:26:16;;;;;;;;;;;;;;;21.92;47.70;100896.34;5090599;28;20275;-56
2023/05/03 08:28:41;;;;;;;;;;;;;;;22.48;48.87;100896.16;5089175;28;19920;-56
2023/05/03 08:31:07;;;;;;;;;;;;;;;22.81;46.91;100885.75;5090022;28;19958;-56
2023/05/03 08:33:32;;;;;;;;;;;;;;;22.75;45.73;100897.00;5089463;28;19969;-56
2023/05/03 08:35:57;;;;;;;;;;;;;;;22.79;45.82;100894.97;5071098;28;19920;-56
2023/05/03 08:38:23;;;;;;;;;;;;;;;22.90;45.49;100893.25;5089478;28;20199;-56
2023/05/03 08:40:50;;;;;;;;;;;;;;;22.84;46.27;100899.09;5089684;28;19939;-56
2023/05/03 08:43:18;;;;;;;;;;;;;;;23.10;47.00;100890.00;5090904;28;20011;-56
2023/05/03 08:45:44;;;;;;;;;;;;;;;23.21;45.87;100889.28;5089762;28;19922;-56
2023/05/03 08:48:09;;;;;;;;;;;;;;;23.33;43.85;100892.00;5090979;28;19920;-56
2023/05/03 08:50:40;;;;;;;;;;;;;;;23.61;45.78;100890.03;5090796;28;19920;-56
2023/05/03 08:53:06;;;;;;;;;;;;;;;23.68;43.89;100896.75;5077545;28;19970;-56
2023/05/03 08:55:31;;;;;;;;;;;;;;;23.84;45.19;100897.38;5079875;28;19920;-56
2023/05/03 08:57:59;;;;;;;;;;;;;;;24.01;45.35;100888.88;5090535;28;20002;-57
2023/05/03 09:00:28;;;;;;;;;;;;;;;24.23;42.85;100889.03;5089087;28;20007;-56
2023/05/03 09:02:53;;;;;;;;;;;;;;;24.24;44.88;100879.88;5089522;28;19923;-56
2023/05/03 09:05:18;;;;;;;;;;;;;;;24.37;42.85;100880.66;5088998;28;20275;-56
2023/05/03 09:07:59;;;;;;;;;;;;;;;24.61;42.91;100878.81;5091243;28;19927;-56
2023/05/03 09:10:24;;;;;;;;;;;;;;;24.38;41.94;100877.00;5089651;28;19916;-56
2023/05/03 09:12:56;;;;;;;;;;;;;;;24.27;43.69;100887.78;5089238;28;19923;-56
2023/05/03 09:15:21;;;;;;;;;;;;;;;24.43;44.08;100878.34;5089402;28;20071;-56
2023/05/03 09:18:05;;;;;;;;;;;;;;;24.74;44.95;100881.47;5090312;28;19916;-57
2023/05/03 09:20:34;;;;;;;;;;;;;;;24.97;42.55;100878.72;5089134;28;19945;-56
2023/05/03 09:23:00;;;;;;;;;;;;;;;25.10;42.57;100874.03;5089285;28;20176;-57
2023/05/03 09:25:38;;;;;;;;;;;;;;;24.69;42.09;100882.69;5089776;28;20249;-56
2023/05/03 09:28:03;;;;;;;;;;;;;;;24.40;42.56;100880.44;5070195;28;19923;-56
2023/05/03 09:30:29;;;;;;;;;;;;;;;24.79;43.05;100871.13;5087903;28;19934;-56
2023/05/03 09:32:54;;;;;;;;;;;;;;;24.72;43.97;100876.16;5077761;28;19913;-57
2023/05/03 09:35:19;;;;;;;;;;;;;;;24.39;43.02;100867.84;5078532;28;19916;-56
2023/05/03 09:37:45;;;;;;;;;;;;;;;24.32;43.35;100880.16;5089360;28;19923;-56
2023/05/03 09:40:11;;;;;;;;;;;;;;;24.63;43.70;100876.81;5089627;28;19912;-56
2023/05/03 09:42:37;;;;;;;;;;;;;;;24.82;43.14;100863.56;5089979;28;19912;-56
2023/05/03 09:45:02;;;;;;;;;;;;;;;24.95;42.71;100861.63;5088751;28;20462;-56
2023/05/03 09:47:27;;;;;;;;;;;;;;;24.67;44.70;100867.44;5089007;28;20633;-57
2023/05/03 09:49:53;;;;;;;;;;;;;;;25.10;43.18;100865.88;5089424;28;19927;-56
2023/05/03 09:52:21;;;;;;;;;;;;;;;25.08;43.28;100859.66;5107783;28;19916;-56
2023/05/03 09:54:47;;;;;;;;;;;;;;;25.16;43.90;100864.50;5109701;28;19919;-56
2023/05/03 09:57:13;;;;;;;;;;;;;;;25.12;43.27;100858.47;5093473;28;19930;-57
2023/05/03 09:59:38;;;;;;;;;;;;;;;25.55;42.62;100851.31;5089819;28;19916;-57
2023/05/03 10:02:07;;;;;;;;;;;;;;;25.47;42.65;100844.78;5089346;28;19923;-57
2023/05/03 10:04:43;;;;;;;;;;;;;;;25.28;42.50;100852.63;5090910;28;19924;-57
2023/05/03 10:07:12;;;;;;;;;;;;;;;25.34;42.15;100844.84;5089813;28;20014;-57
2023/05/03 10:09:38;;;;;;;;;;;;;;;25.53;42.89;100842.41;5088797;28;19916;-57
2023/05/03 10:12:06;;;;;;;;;;;;;;;25.63;40.67;100843.38;5072710;28;19916;-57
2023/05/03 10:14:31;;;;;;;;;;;;;;;25.44;42.39;100836.81;5089674;28;19912;-56
2023/05/03 10:17:03;;;;;;;;;;;;;;;25.46;42.28;100838.44;5087664;28;19920;-57
2023/05/03 10:19:32;;;;;;;;;;;;;;;25.45;43.03;100831.25;5090788;28;19928;-56
2023/05/03 10:22:10;;;;;;;;;;;;;;;25.50;41.57;100839.91;5078289;28;20360;-56
2023/05/03 10:24:36;;;;;;;;;;;;;;;25.31;42.05;100828.75;5082672;28;19913;-57
2023/05/03 10:27:06;;;;;;;;;;;;;;;25.35;41.33;100827.56;5072632;28;19966;-56
2023/05/03 10:29:34;;;;;;;;;;;;;;;25.28;42.74;100823.56;5072475;28;19916;-57
2023/05/03 10:32:20;;;;;;;;;;;;;;;25.51;41.79;100828.03;5085383;28;20291;-57
2023/05/03 10:34:45;;;;;;;;;;;;;;;25.44;41.72;100821.34;5082782;28;19922;-57
2023/05/03 10:37:10;;;;;;;;;;;;;;;25.68;42.57;100815.75;5092650;28;20271;-57
2023/05/03 10:39:36;;;;;;;;;;;;;;;26.06;43.58;100805.31;5092834;28;19916;-57
2023/05/03 10:42:07;;;;;;;;;;;;;;;26.11;40.35;100810.34;5093142;28;20288;-56
2023/05/03 10:44:47;;;;;;;;;;;;;;;26.50;41.18;100805.09;5092253;28;20371;-57
2023/05/03 10:47:13;;;;;;;;;;;;;;;26.52;40.13;100797.66;5093260;28;19934;-56
2023/05/03 10:49:38;;;;;;;;;;;;;;;26.78;39.52;100806.34;5092345;28;19916;-56
2023/05/03 10:52:24;;;;;;;;;;;;;;;27.04;39.45;100807.66;5092061;28;19921;-57
2023/05/03 10:54:49;;;;;;;;;;;;;;;27.13;40.73;100796.75;5091810;28;19994;-57
2023/05/03 10:57:15;;;;;;;;;;;;;;;26.92;38.73;100787.75;5092275;28;20479;-57
2023/05/03 10:59:48;;;;;;;;;;;;;;;27.50;41.75;100791.63;5092777;28;19923;-56
2023/05/03 11:02:17;;;;;;;;;;;;;;;27.51;37.59;100781.59;5092371;28;19983;-57
2023/05/03 11:04:44;;;;;;;;;;;;;;;27.25;38.60;100780.31;5091982;28;20353;-57
2023/05/03 11:07:10;;;;;;;;;;;;;;;27.50;39.35;100793.50;5092846;28;19992;-57
2023/05/03 11:09:35;;;;;;;;;;;;;;;27.48;39.22;100774.50;5092985;28;20018;-57
2023/05/03 11:12:07;;;;;;;;;;;;;;;27.36;38.86;100778.38;5095517;28;19916;-57
2023/05/03 11:14:32;;;;;;;;;;;;;;;27.32;38.53;100771.44;5091858;28;19962;-57
2023/05/03 11:16:58;;;;;;;;;;;;;;;27.55;39.25;100775.69;5092935;28;19928;-56
2023/05/03 11:19:24;;;;;;;;;;;;;;;27.96;38.85;100775.53;5092414;28;19916;-57
2023/05/03 11:21:49;;;;;;;;;;;;;;;27.88;37.58;100766.25;5092449;28;19916;-58
2023/05/03 11:24:15;;;;;;;;;;;;;;;28.11;38.46;100763.16;5092092;28;20333;-58
2023/05/03 11:26:40;;;;;;;;;;;;;;;28.34;39.75;100764.59;5091832;28;20609;-56
2023/05/03 11:29:09;;;;;;;;;;;;;;;28.29;39.32;100758.69;5090968;28;20287;-56
2023/05/03 11:31:34;;;;;;;;;;;;;;;28.27;38.86;100755.22;5090208;28;19920;-56
2023/05/03 11:33:59;;;;;;;;;;;;;;;28.32;39.89;100739.25;5091421;28;20284;-56
2023/05/03 11:36:26;;;;;;;;;;;;;;;28.37;38.02;100742.41;5090603;28;19920;-56
2023/05/03 11:38:52;;;;;;;;;;;;;;;27.99;37.87;100747.88;5091283;28;20383;-56
2023/05/03 11:41:17;;;;;;;;;;;;;;;28.45;37.14;100744.44;5091063;28;19919;-56
2023/05/03 11:43:43;;;;;;;;;;;;;;;28.19;37.25;100746.88;5090598;28;19927;-56
2023/05/03 11:46:09;;;;;;;;;;;;;;;28.30;35.95;100741.25;5092021;28;20330;-57
2023/05/03 11:48:35;;;;;;;;;;;;;;;27.80;37.41;100738.75;5090347;28;20280;-56
2023/05/03 11:51:05;;;;;;;;;;;;;;;27.86;37.98;100732.72;5104034;28;19923;-56
2023/05/03 11:53:30;;;;;;;;;;;;;;;27.71;38.46;100732.25;5080363;28;20006;-56
2023/05/03 11:55:56;;;;;;;;;;;;;;;27.97;37.54;100725.28;5073324;28;20340;-56
2023/05/03 11:58:23;;;;;;;;;;;;;;;27.97;38.99;100722.53;5091970;28;19967;-56
2023/05/03 12:00:49;;;;;;;;;;;;;;;27.77;37.79;100728.13;5091985;28;19919;-56
2023/05/03 12:03:15;;;;;;;;;;;;;;;27.55;37.33;100714.69;5091487;28;19924;-56
2023/05/03 12:05:41;;;;;;;;;;;;;;;27.88;37.87;100717.91;5092142;28;19919;-56
2023/05/03 12:08:06;;;;;;;;;;;;;;;28.21;37.60;100712.03;5090644;28;19963;-57
2023/05/03 12:10:32;;;;;;;;;;;;;;;28.31;36.99;100704.69;5091963;28;19916;-56
2023/05/03 12:12:58;;;;;;;;;;;;;;;28.22;37.76;100700.06;5091829;28;19955;-56
2023/05/03 12:15:33;;;;;;;;;;;;;;;28.07;36.97;100701.50;5092172;28;19916;-56
2023/05/03 12:18:00;;;;;;;;;;;;;;;28.64;37.33;100705.22;5091391;28;19920;-56
2023/05/03 12:20:29;;;;;;;;;;;;;;;27.98;36.11;100705.13;5091705;28;20240;-56
2023/05/03 12:22:55;;;;;;;;;;;;;;;28.48;37.96;100703.91;5090914;28;20299;-57
2023/05/03 12:25:21;;;;;;;;;;;;;;;27.92;36.92;100702.97;5091291;28;19931;-58
2023/05/03 12:27:47;;;;;;;;;;;;;;;28.30;38.43;100692.00;5091547;28;20371;-58
2023/05/03 12:30:13;;;;;;;;;;;;;;;28.34;38.23;100698.91;5090102;28;19920;-56
2023/05/03 12:32:38;;;;;;;;;;;;;;;28.52;37.25;100690.00;5091423;28;19912;-56